Time;durP1;ratioP1;P1;durP2;ratioP2;P2;SDS_P1;SDS_P2;PMS_P1;PMS_P2;Temp;Humidity;BMP_temperature;BMP_pressure;BME280_temperature;BME280_humidity;BME280_pressure;Samples;Min_cycle;Max_cycle;Signal;HPM_P1;HPM_P2
2023/11/16 00:02:04;;;;;;;0.10;0.10;;;;;;;;;;4844731;29;20397;-87
2023/11/16 00:04:32;;;;;;;0.10;0.10;;;;;;;;;;4829901;29;20048;-86
2023/11/16 00:06:59;;;;;;;0.10;0.10;;;;;;;;;;4829805;29;20410;-87
2023/11/16 00:09:25;;;;;;;0.10;0.10;;;;;;;;;;4844509;29;20046;-87
2023/11/16 00:11:52;;;;;;;0.10;0.10;;;;;;;;;;4829576;29;20132;-87
2023/11/16 00:14:18;;;;;;;0.10;0.10;;;;;;;;;;4844436;29;20201;-87
2023/11/16 00:16:44;;;;;;;0.15;0.15;;;;;;;;;;4844209;29;20304;-87
2023/11/16 00:19:11;;;;;;;0.10;0.10;;;;;;;;;;4844303;29;20045;-88
2023/11/16 00:21:36;;;;;;;0.10;0.10;;;;;;;;;;4828920;29;20049;-87
2023/11/16 00:24:05;;;;;;;0.10;0.10;;;;;;;;;;4828983;29;20536;-87
2023/11/16 00:26:33;;;;;;;0.10;0.10;;;;;;;;;;4829347;29;20045;-87
2023/11/16 00:29:00;;;;;;;0.10;0.10;;;;;;;;;;4843960;29;20097;-87
2023/11/16 00:31:30;;;;;;;0.10;0.10;;;;;;;;;;4844240;29;20496;-87
2023/11/16 00:33:56;;;;;;;0.10;0.10;;;;;;;;;;4829454;29;20129;-87
2023/11/16 00:36:23;;;;;;;0.32;0.20;;;;;;;;;;4843764;29;20362;-87
2023/11/16 00:38:50;;;;;;;0.10;0.10;;;;;;;;;;4844047;29;20158;-87
2023/11/16 00:41:16;;;;;;;0.10;0.10;;;;;;;;;;4843736;29;20057;-87
2023/11/16 00:43:43;;;;;;;0.10;0.10;;;;;;;;;;4843840;29;20049;-88
2023/11/16 00:46:11;;;;;;;0.10;0.10;;;;;;;;;;4843639;29;20045;-88
2023/11/16 00:48:39;;;;;;;0.10;0.10;;;;;;;;;;4829140;29;20049;-87
2023/11/16 00:51:07;;;;;;;0.10;0.10;;;;;;;;;;4828596;29;20148;-87
2023/11/16 00:53:33;;;;;;;0.10;0.10;;;;;;;;;;4843867;29;20049;-88
2023/11/16 00:55:59;;;;;;;0.10;0.10;;;;;;;;;;4828608;29;20461;-87
2023/11/16 00:58:25;;;;;;;0.25;0.25;;;;;;;;;;4843743;29;20049;-87
2023/11/16 01:00:52;;;;;;;0.10;0.10;;;;;;;;;;4843330;29;20067;-87
2023/11/16 01:03:18;;;;;;;0.10;0.10;;;;;;;;;;4843486;29;20120;-87
2023/11/16 01:05:45;;;;;;;0.10;0.10;;;;;;;;;;4843572;29;20079;-87
2023/11/16 01:08:11;;;;;;;0.10;0.10;;;;;;;;;;4843371;29;20049;-87
2023/11/16 01:10:43;;;;;;;4.30;1.33;;;;;;;;;;4843477;29;20128;-88
2023/11/16 01:13:10;;;;;;;0.10;0.10;;;;;;;;;;4844275;29;20413;-88
2023/11/16 01:15:38;;;;;;;0.10;0.10;;;;;;;;;;4843286;29;20041;-88
2023/11/16 01:18:12;;;;;;;0.10;0.10;;;;;;;;;;4843721;29;20421;-88
2023/11/16 01:20:38;;;;;;;0.10;0.10;;;;;;;;;;4843900;29;20052;-87
2023/11/16 01:23:15;;;;;;;0.10;0.10;;;;;;;;;;4843463;29;20068;-88
2023/11/16 01:25:51;;;;;;;0.10;0.10;;;;;;;;;;4844794;29;20541;-88
2023/11/16 01:28:17;;;;;;;0.10;0.10;;;;;;;;;;4834782;29;20382;-88
2023/11/16 01:30:43;;;;;;;0.10;0.10;;;;;;;;;;4849265;29;20049;-88
2023/11/16 01:33:09;;;;;;;0.10;0.10;;;;;;;;;;4849473;29;20132;-88
2023/11/16 01:35:36;;;;;;;0.20;0.20;;;;;;;;;;4849646;29;20089;-88
2023/11/16 01:38:04;;;;;;;0.10;0.10;;;;;;;;;;4834453;29;20049;-89
2023/11/16 01:40:30;;;;;;;0.10;0.10;;;;;;;;;;4834109;29;20107;-89
2023/11/16 01:42:57;;;;;;;0.10;0.10;;;;;;;;;;4849207;29;20046;-89
2023/11/16 01:45:32;;;;;;;0.10;0.10;;;;;;;;;;4849478;29;20045;-89
2023/11/16 01:48:00;;;;;;;0.10;0.10;;;;;;;;;;4849570;29;20042;-87
2023/11/16 01:50:26;;;;;;;0.10;0.10;;;;;;;;;;4833783;29;20065;-88
2023/11/16 01:52:52;;;;;;;0.10;0.10;;;;;;;;;;4849166;29;20072;-88
2023/11/16 01:55:18;;;;;;;0.10;0.10;;;;;;;;;;4833954;29;20485;-88
2023/11/16 01:57:44;;;;;;;0.10;0.10;;;;;;;;;;4849104;29;20076;-88
2023/11/16 02:00:14;;;;;;;0.10;0.10;;;;;;;;;;4849289;29;20045;-88
2023/11/16 02:02:40;;;;;;;0.25;0.25;;;;;;;;;;4834701;29;20048;-88
2023/11/16 02:05:08;;;;;;;0.10;0.10;;;;;;;;;;4849112;29;20401;-88
2023/11/16 02:07:34;;;;;;;0.10;0.10;;;;;;;;;;4833957;29;20046;-88
2023/11/16 02:09:59;;;;;;;0.10;0.10;;;;;;;;;;4849163;29;20132;-88
2023/11/16 02:12:25;;;;;;;0.10;0.10;;;;;;;;;;4849447;29;20045;-88
2023/11/16 02:14:51;;;;;;;0.10;0.10;;;;;;;;;;4849001;29;20505;-88
2023/11/16 02:17:17;;;;;;;0.20;0.20;;;;;;;;;;4849071;29;20041;-89
2023/11/16 02:19:43;;;;;;;0.10;0.10;;;;;;;;;;4833746;29;20508;-88
2023/11/16 02:22:10;;;;;;;0.13;0.13;;;;;;;;;;4848980;29;20125;-89
2023/11/16 02:24:36;;;;;;;0.10;0.10;;;;;;;;;;4848834;29;20043;-89
2023/11/16 02:27:03;;;;;;;0.10;0.10;;;;;;;;;;4833871;29;20120;-89
2023/11/16 02:29:29;;;;;;;0.10;0.10;;;;;;;;;;4849388;29;20397;-88
2023/11/16 02:31:55;;;;;;;0.10;0.10;;;;;;;;;;4849259;29;20046;-89
2023/11/16 02:34:21;;;;;;;0.10;0.10;;;;;;;;;;4833954;29;20101;-88
2023/11/16 02:36:47;;;;;;;0.10;0.10;;;;;;;;;;4849205;29;20049;-89
2023/11/16 02:39:15;;;;;;;0.10;0.10;;;;;;;;;;4845461;29;20532;-88
2023/11/16 02:41:42;;;;;;;0.10;0.10;;;;;;;;;;4830829;29;20046;-89
2023/11/16 02:44:08;;;;;;;0.10;0.10;;;;;;;;;;4845841;29;20048;-89
2023/11/16 02:46:34;;;;;;;0.10;0.10;;;;;;;;;;4846263;29;20034;-88
2023/11/16 02:49:00;;;;;;;0.10;0.10;;;;;;;;;;4846141;29;20052;-88
2023/11/16 02:51:26;;;;;;;0.10;0.10;;;;;;;;;;4845572;29;20425;-88
2023/11/16 02:53:54;;;;;;;0.10;0.10;;;;;;;;;;4830304;29;20060;-88
2023/11/16 02:56:20;;;;;;;0.10;0.10;;;;;;;;;;4830745;29;20482;-88
2023/11/16 02:58:46;;;;;;;0.10;0.10;;;;;;;;;;4845601;29;20048;-88
2023/11/16 03:01:12;;;;;;;0.10;0.10;;;;;;;;;;4845486;29;20072;-88
2023/11/16 03:03:39;;;;;;;0.10;0.10;;;;;;;;;;4845639;29;20069;-88
2023/11/16 03:06:05;;;;;;;0.10;0.10;;;;;;;;;;4845863;29;20121;-88
2023/11/16 03:08:32;;;;;;;0.10;0.10;;;;;;;;;;4845689;29;20497;-88
2023/11/16 03:11:00;;;;;;;0.10;0.10;;;;;;;;;;4845389;29;20055;-89
2023/11/16 03:13:27;;;;;;;0.10;0.10;;;;;;;;;;4830840;29;20087;-88
2023/11/16 03:15:53;;;;;;;0.10;0.10;;;;;;;;;;4845432;29;20054;-88
2023/11/16 03:18:19;;;;;;;0.10;0.10;;;;;;;;;;4845353;29;20128;-89
2023/11/16 03:20:46;;;;;;;0.10;0.10;;;;;;;;;;4845255;29;20053;-89
2023/11/16 03:23:13;;;;;;;0.10;0.10;;;;;;;;;;4845523;29;20394;-88
2023/11/16 03:25:39;;;;;;;0.10;0.10;;;;;;;;;;4845533;29;20182;-89
2023/11/16 03:28:06;;;;;;;0.10;0.10;;;;;;;;;;4845446;29;20090;-88
2023/11/16 03:30:33;;;;;;;0.10;0.10;;;;;;;;;;4844982;29;20049;-88
2023/11/16 03:32:59;;;;;;;0.10;0.10;;;;;;;;;;4845264;29;20442;-88
2023/11/16 03:35:25;;;;;;;0.10;0.10;;;;;;;;;;4844952;29;20434;-88
2023/11/16 03:37:53;;;;;;;0.10;0.10;;;;;;;;;;4845068;29;20060;-88
2023/11/16 03:40:19;;;;;;;0.10;0.10;;;;;;;;;;4829623;29;20182;-88
2023/11/16 03:42:45;;;;;;;0.10;0.10;;;;;;;;;;4844887;29;20124;-89
2023/11/16 03:45:11;;;;;;;0.10;0.10;;;;;;;;;;4844990;29;20042;-88
2023/11/16 03:47:37;;;;;;;0.10;0.10;;;;;;;;;;4845006;29;20075;-88
2023/11/16 03:50:06;;;;;;;0.10;0.10;;;;;;;;;;4844342;29;20167;-88
2023/11/16 03:52:32;;;;;;;0.10;0.10;;;;;;;;;;4845207;29;20261;-88
2023/11/16 03:54:58;;;;;;;0.10;0.10;;;;;;;;;;4844898;29;20041;-89
2023/11/16 03:57:25;;;;;;;0.10;0.10;;;;;;;;;;4844665;29;20041;-88
2023/11/16 03:59:51;;;;;;;0.10;0.10;;;;;;;;;;4844632;29;20048;-88
2023/11/16 04:02:17;;;;;;;0.10;0.10;;;;;;;;;;4829328;29;20045;-88
2023/11/16 04:04:43;;;;;;;0.10;0.10;;;;;;;;;;4844395;29;20057;-88
2023/11/16 04:07:09;;;;;;;0.10;0.10;;;;;;;;;;4844479;29;20151;-88
2023/11/16 04:09:39;;;;;;;0.10;0.10;;;;;;;;;;4844780;29;20183;-88
2023/11/16 04:12:06;;;;;;;0.10;0.10;;;;;;;;;;4844306;29;20493;-88
2023/11/16 04:14:32;;;;;;;0.10;0.10;;;;;;;;;;4844445;29;20483;-88
2023/11/16 04:16:58;;;;;;;0.10;0.10;;;;;;;;;;4844599;29;20084;-88
2023/11/16 04:19:25;;;;;;;0.10;0.10;;;;;;;;;;4844187;29;20179;-87
2023/11/16 04:21:51;;;;;;;0.10;0.10;;;;;;;;;;4844090;29;20128;-88
2023/11/16 04:24:18;;;;;;;0.10;0.10;;;;;;;;;;4844323;29;20046;-89
2023/11/16 04:26:45;;;;;;;0.10;0.10;;;;;;;;;;4829134;29;20054;-89
2023/11/16 04:29:11;;;;;;;0.10;0.10;;;;;;;;;;4844035;29;20045;-89
2023/11/16 04:31:37;;;;;;;0.10;0.10;;;;;;;;;;4844376;29;20445;-88
2023/11/16 04:34:03;;;;;;;0.10;0.10;;;;;;;;;;4844077;29;20125;-88
2023/11/16 04:36:30;;;;;;;0.10;0.10;;;;;;;;;;4844014;29;20141;-88
2023/11/16 04:38:56;;;;;;;0.20;0.20;;;;;;;;;;4843983;29;20097;-88
2023/11/16 04:41:26;;;;;;;0.10;0.10;;;;;;;;;;4843738;29;20045;-88
2023/11/16 04:43:52;;;;;;;0.10;0.10;;;;;;;;;;4843773;29;20098;-89
2023/11/16 04:46:18;;;;;;;0.10;0.10;;;;;;;;;;4843882;29;20124;-89
2023/11/16 04:48:45;;;;;;;0.10;0.10;;;;;;;;;;4843824;29;20076;-88
2023/11/16 04:51:16;;;;;;;0.10;0.10;;;;;;;;;;4843761;29;20067;-88
2023/11/16 04:53:42;;;;;;;0.10;0.10;;;;;;;;;;4844793;29;20061;-88
2023/11/16 04:56:09;;;;;;;0.10;0.10;;;;;;;;;;4843923;29;20053;-88
2023/11/16 04:58:35;;;;;;;0.10;0.10;;;;;;;;;;4843699;29;20045;-88
2023/11/16 05:01:02;;;;;;;0.10;0.10;;;;;;;;;;4843034;29;20409;-88
2023/11/16 05:03:28;;;;;;;0.10;0.10;;;;;;;;;;4828316;29;20041;-88
2023/11/16 05:05:54;;;;;;;0.10;0.10;;;;;;;;;;4828552;29;20041;-88
2023/11/16 05:08:21;;;;;;;0.10;0.10;;;;;;;;;;4843740;29;20049;-88
2023/11/16 05:10:47;;;;;;;0.10;0.10;;;;;;;;;;4843466;29;20494;-88
2023/11/16 05:13:13;;;;;;;0.10;0.10;;;;;;;;;;4843720;29;20057;-88
2023/11/16 05:15:41;;;;;;;0.10;0.10;;;;;;;;;;4843544;29;20049;-88
2023/11/16 05:18:06;;;;;;;0.10;0.10;;;;;;;;;;4843662;29;20068;-88
2023/11/16 05:20:32;;;;;;;0.10;0.10;;;;;;;;;;4843199;29;20059;-88
2023/11/16 05:22:58;;;;;;;0.10;0.10;;;;;;;;;;4843242;29;20125;-88
2023/11/16 05:25:24;;;;;;;0.10;0.10;;;;;;;;;;4843410;29;20045;-88
2023/11/16 05:27:50;;;;;;;0.10;0.10;;;;;;;;;;4843549;29;20076;-89
2023/11/16 05:30:16;;;;;;;0.10;0.10;;;;;;;;;;4828123;29;20073;-88
2023/11/16 05:32:42;;;;;;;0.10;0.10;;;;;;;;;;4843478;29;20056;-88
2023/11/16 05:35:11;;;;;;;0.10;0.10;;;;;;;;;;4843302;29;20037;-88
2023/11/16 05:37:37;;;;;;;0.10;0.10;;;;;;;;;;4843550;29;20073;-88
2023/11/16 05:40:05;;;;;;;0.10;0.10;;;;;;;;;;4828035;29;20498;-89
2023/11/16 05:42:31;;;;;;;0.10;0.10;;;;;;;;;;4843009;29;20052;-88
2023/11/16 05:44:57;;;;;;;0.10;0.10;;;;;;;;;;4843471;29;20049;-88
2023/11/16 05:47:24;;;;;;;0.10;0.10;;;;;;;;;;4843195;29;20045;-88
2023/11/16 05:49:50;;;;;;;0.10;0.10;;;;;;;;;;4843088;29;20046;-88
2023/11/16 05:52:16;;;;;;;0.10;0.10;;;;;;;;;;4843335;29;20076;-88
2023/11/16 05:54:42;;;;;;;0.10;0.10;;;;;;;;;;4843291;29;20498;-88
2023/11/16 05:57:08;;;;;;;0.10;0.10;;;;;;;;;;4842996;29;20182;-88
2023/11/16 05:59:34;;;;;;;0.10;0.10;;;;;;;;;;4842921;29;20057;-88
2023/11/16 06:02:00;;;;;;;0.10;0.10;;;;;;;;;;4843037;29;20041;-88
2023/11/16 06:04:25;;;;;;;0.10;0.10;;;;;;;;;;4827853;29;20137;-88
2023/11/16 06:06:53;;;;;;;0.10;0.10;;;;;;;;;;4843060;29;20038;-88
2023/11/16 06:09:19;;;;;;;0.10;0.10;;;;;;;;;;4842833;29;20053;-88
2023/11/16 06:11:45;;;;;;;0.10;0.10;;;;;;;;;;4843387;29;20215;-88
2023/11/16 06:14:12;;;;;;;0.10;0.10;;;;;;;;;;4845664;29;20571;-88
2023/11/16 06:16:44;;;;;;;0.10;0.10;;;;;;;;;;4846357;29;20059;-88
2023/11/16 06:19:10;;;;;;;0.10;0.10;;;;;;;;;;4831755;29;20087;-88
2023/11/16 06:21:36;;;;;;;0.10;0.10;;;;;;;;;;4846343;29;20068;-88
2023/11/16 06:24:01;;;;;;;0.10;0.10;;;;;;;;;;4846361;29;20065;-88
2023/11/16 06:26:28;;;;;;;0.10;0.10;;;;;;;;;;4846209;29;20064;-88
2023/11/16 06:28:54;;;;;;;0.10;0.10;;;;;;;;;;4846322;29;20110;-88
2023/11/16 06:31:20;;;;;;;0.10;0.10;;;;;;;;;;4846137;29;20395;-88
2023/11/16 06:33:46;;;;;;;0.10;0.10;;;;;;;;;;4846339;29;20046;-88
2023/11/16 06:36:12;;;;;;;0.10;0.10;;;;;;;;;;4846136;29;20121;-88
2023/11/16 06:38:38;;;;;;;0.10;0.10;;;;;;;;;;4830602;29;20486;-88
2023/11/16 06:41:05;;;;;;;0.10;0.10;;;;;;;;;;4845986;29;20049;-87
2023/11/16 06:43:31;;;;;;;0.10;0.10;;;;;;;;;;4846056;29;20042;-88
2023/11/16 06:46:00;;;;;;;0.10;0.10;;;;;;;;;;4846184;29;20052;-88
2023/11/16 06:48:26;;;;;;;0.10;0.10;;;;;;;;;;4830938;29;20046;-88
2023/11/16 06:50:54;;;;;;;0.10;0.10;;;;;;;;;;4830437;29;20065;-88
2023/11/16 06:53:21;;;;;;;0.10;0.10;;;;;;;;;;4846401;29;20469;-88
2023/11/16 06:55:49;;;;;;;0.10;0.10;;;;;;;;;;4846156;29;20059;-88
2023/11/16 06:58:16;;;;;;;0.10;0.10;;;;;;;;;;4846268;29;20087;-88
2023/11/16 07:00:43;;;;;;;0.10;0.10;;;;;;;;;;4845729;29;20056;-88
2023/11/16 07:03:10;;;;;;;0.10;0.10;;;;;;;;;;4830570;29;20132;-88
2023/11/16 07:05:36;;;;;;;0.10;0.10;;;;;;;;;;4845652;29;20038;-88
2023/11/16 07:08:02;;;;;;;0.10;0.10;;;;;;;;;;4845631;29;20043;-88
2023/11/16 07:10:28;;;;;;;0.10;0.10;;;;;;;;;;4830195;29;20045;-87
2023/11/16 07:12:55;;;;;;;0.10;0.10;;;;;;;;;;4846044;29;20044;-88
2023/11/16 07:15:21;;;;;;;0.10;0.10;;;;;;;;;;4830331;29;20049;-88
2023/11/16 07:17:48;;;;;;;0.10;0.10;;;;;;;;;;4830676;29;20041;-89
2023/11/16 07:20:16;;;;;;;0.10;0.10;;;;;;;;;;4830037;29;20409;-87
2023/11/16 07:22:42;;;;;;;0.10;0.10;;;;;;;;;;4830082;29;20038;-87
2023/11/16 07:25:09;;;;;;;0.10;0.10;;;;;;;;;;4829370;29;20041;-88
2023/11/16 07:27:35;;;;;;;0.10;0.10;;;;;;;;;;4830462;29;20053;-88
2023/11/16 07:30:01;;;;;;;0.10;0.10;;;;;;;;;;4829872;29;20046;-85
2023/11/16 07:32:27;;;;;;;0.10;0.10;;;;;;;;;;4845430;29;20041;-87
2023/11/16 07:34:53;;;;;;;0.10;0.10;;;;;;;;;;4844976;29;20053;-87
2023/11/16 07:37:20;;;;;;;0.10;0.10;;;;;;;;;;4845446;29;20045;-86
2023/11/16 07:39:46;;;;;;;0.10;0.10;;;;;;;;;;4845066;29;20051;-87
2023/11/16 07:42:13;;;;;;;0.10;0.10;;;;;;;;;;4844832;29;20124;-87
2023/11/16 07:44:43;;;;;;;0.10;0.10;;;;;;;;;;4844794;29;20125;-87
2023/11/16 07:47:09;;;;;;;0.10;0.10;;;;;;;;;;4845497;29;20072;-87
2023/11/16 07:49:36;;;;;;;0.10;0.10;;;;;;;;;;4844647;29;20486;-86
2023/11/16 07:52:02;;;;;;;0.10;0.10;;;;;;;;;;4829336;29;20066;-86
2023/11/16 07:54:28;;;;;;;0.10;0.10;;;;;;;;;;4829535;29;20128;-87
2023/11/16 07:56:59;;;;;;;0.10;0.10;;;;;;;;;;4829450;29;20045;-87
2023/11/16 07:59:31;;;;;;;0.10;0.10;;;;;;;;;;4830435;29;20050;-87
2023/11/16 08:02:00;;;;;;;0.10;0.10;;;;;;;;;;4845306;29;20081;-87
2023/11/16 08:04:26;;;;;;;0.10;0.10;;;;;;;;;;4845234;29;20090;-89
2023/11/16 08:06:55;;;;;;;0.10;0.10;;;;;;;;;;4845159;29;20041;-88
2023/11/16 08:09:26;;;;;;;0.10;0.10;;;;;;;;;;4844534;29;20128;-87
2023/11/16 08:11:53;;;;;;;0.10;0.10;;;;;;;;;;4844466;29;20081;-86
2023/11/16 08:14:22;;;;;;;0.10;0.10;;;;;;;;;;4844730;29;20056;-87
2023/11/16 08:16:49;;;;;;;0.10;0.10;;;;;;;;;;4844193;29;20052;-89
2023/11/16 08:19:15;;;;;;;0.10;0.10;;;;;;;;;;4844221;29;20049;-87
2023/11/16 08:21:41;;;;;;;0.10;0.10;;;;;;;;;;4844258;29;20550;-86
2023/11/16 08:24:12;;;;;;;0.10;0.10;;;;;;;;;;4844262;29;20045;-86
2023/11/16 08:26:38;;;;;;;0.10;0.10;;;;;;;;;;4844416;29;20049;-93
2023/11/16 08:29:04;;;;;;;0.10;0.10;;;;;;;;;;4844240;29;20037;-88
2023/11/16 08:31:30;;;;;;;0.10;0.10;;;;;;;;;;4844182;29;20121;-87
2023/11/16 08:33:56;;;;;;;0.10;0.10;;;;;;;;;;4844112;29;20053;-87
2023/11/16 08:36:24;;;;;;;0.10;0.10;;;;;;;;;;4828501;29;20059;-87
2023/11/16 08:38:50;;;;;;;0.10;0.10;;;;;;;;;;4844190;29;20490;-88
2023/11/16 08:41:17;;;;;;;0.10;0.10;;;;;;;;;;4828593;29;20114;-88
2023/11/16 08:43:43;;;;;;;0.10;0.10;;;;;;;;;;4843588;29;20049;-88
2023/11/16 08:46:11;;;;;;;0.10;0.10;;;;;;;;;;4828594;29;20046;-88
2023/11/16 08:48:43;;;;;;;0.10;0.10;;;;;;;;;;4829076;29;20469;-89
2023/11/16 08:51:09;;;;;;;0.10;0.10;;;;;;;;;;4829070;29;20117;-88
2023/11/16 08:53:39;;;;;;;0.10;0.10;;;;;;;;;;4828645;29;20478;-88
2023/11/16 08:56:07;;;;;;;0.10;0.10;;;;;;;;;;4843747;29;20468;-87
2023/11/16 08:58:34;;;;;;;0.10;0.10;;;;;;;;;;4828471;29;20120;-88
2023/11/16 09:01:03;;;;;;;0.10;0.10;;;;;;;;;;4828416;29;20052;-88
2023/11/16 09:03:33;;;;;;;0.10;0.10;;;;;;;;;;4829042;29;20084;-88
2023/11/16 09:06:03;;;;;;;0.10;0.10;;;;;;;;;;4843612;29;20517;-88
2023/11/16 09:08:29;;;;;;;0.10;0.10;;;;;;;;;;4844082;29;20061;-89
2023/11/16 09:10:55;;;;;;;0.10;0.10;;;;;;;;;;4843386;29;20046;-88
2023/11/16 09:13:22;;;;;;;0.10;0.10;;;;;;;;;;4828589;29;20140;-89
2023/11/16 09:15:49;;;;;;;0.10;0.10;;;;;;;;;;4843416;29;20042;-89
2023/11/16 09:18:15;;;;;;;0.10;0.10;;;;;;;;;;4843442;29;20053;-87
2023/11/16 09:20:45;;;;;;;0.10;0.10;;;;;;;;;;4843252;29;20077;-90
2023/11/16 09:23:12;;;;;;;0.10;0.10;;;;;;;;;;4828829;29;20455;-87
2023/11/16 09:25:38;;;;;;;0.10;0.10;;;;;;;;;;4842986;29;20049;-86
2023/11/16 09:28:06;;;;;;;0.10;0.10;;;;;;;;;;4843415;29;20065;-87
2023/11/16 09:30:32;;;;;;;0.10;0.10;;;;;;;;;;4842933;29;20042;-87
2023/11/16 09:33:00;;;;;;;0.10;0.10;;;;;;;;;;4873136;29;20044;-86
2023/11/16 09:35:27;;;;;;;0.10;0.10;;;;;;;;;;4880167;29;20052;-86
2023/11/16 09:37:54;;;;;;;0.10;0.10;;;;;;;;;;4841323;29;20105;-86
2023/11/16 09:40:30;;;;;;;0.10;0.10;;;;;;;;;;4842675;29;20266;-86
2023/11/16 09:43:16;;;;;;;0.10;0.10;;;;;;;;;;4843304;29;20553;-86
2023/11/16 09:45:42;;;;;;;0.10;0.10;;;;;;;;;;4827636;29;20057;-86
2023/11/16 09:48:12;;;;;;;0.10;0.10;;;;;;;;;;4829279;29;20052;-86
2023/11/16 09:50:42;;;;;;;0.10;0.10;;;;;;;;;;4830441;29;20089;-86
2023/11/16 09:53:16;;;;;;;0.10;0.10;;;;;;;;;;4831916;29;20057;-86
2023/11/16 09:55:49;;;;;;;0.10;0.10;;;;;;;;;;4847000;29;20049;-86
2023/11/16 09:58:21;;;;;;;0.10;0.10;;;;;;;;;;4831696;29;20661;-93
2023/11/16 10:00:48;;;;;;;0.10;0.10;;;;;;;;;;4831417;29;20106;-86
2023/11/16 10:03:19;;;;;;;0.10;0.10;;;;;;;;;;4831332;29;20565;-87
2023/11/16 10:05:46;;;;;;;0.10;0.10;;;;;;;;;;4831828;29;20525;-86
2023/11/16 10:08:14;;;;;;;0.10;0.10;;;;;;;;;;4846881;29;20050;-86
2023/11/16 10:10:54;;;;;;;0.10;0.10;;;;;;;;;;4831493;29;20045;-86
2023/11/16 10:13:21;;;;;;;0.10;0.10;;;;;;;;;;4831317;29;20046;-87
2023/11/16 10:15:48;;;;;;;0.10;0.10;;;;;;;;;;4831404;29;20049;-87
2023/11/16 10:18:14;;;;;;;0.10;0.10;;;;;;;;;;4831104;29;20049;-87
2023/11/16 10:20:43;;;;;;;0.10;0.10;;;;;;;;;;4846242;29;20053;-86
2023/11/16 10:23:11;;;;;;;0.10;0.10;;;;;;;;;;4831419;29;20060;-86
2023/11/16 10:25:38;;;;;;;0.10;0.10;;;;;;;;;;4831036;29;20049;-85
2023/11/16 10:28:17;;;;;;;0.10;0.10;;;;;;;;;;4831008;29;20084;-85
2023/11/16 10:30:46;;;;;;;0.10;0.10;;;;;;;;;;4846613;29;20049;-85
2023/11/16 10:33:15;;;;;;;0.10;0.10;;;;;;;;;;4846333;29;20061;-86
2023/11/16 10:35:41;;;;;;;0.10;0.10;;;;;;;;;;4839893;29;20410;-86
2023/11/16 10:38:09;;;;;;;0.10;0.10;;;;;;;;;;4864523;29;20044;-85
2023/11/16 10:40:35;;;;;;;0.10;0.10;;;;;;;;;;4849311;29;20052;-85
2023/11/16 10:43:01;;;;;;;0.10;0.10;;;;;;;;;;4883130;29;20048;-85
2023/11/16 10:45:27;;;;;;;0.10;0.10;;;;;;;;;;4875870;29;20048;-86
2023/11/16 10:47:53;;;;;;;0.10;0.10;;;;;;;;;;4866526;29;20096;-86
2023/11/16 10:50:19;;;;;;;0.10;0.10;;;;;;;;;;4869861;29;20065;-86
2023/11/16 10:52:47;;;;;;;0.10;0.10;;;;;;;;;;4845790;29;20053;-86
2023/11/16 10:55:16;;;;;;;0.10;0.10;;;;;;;;;;4845334;29;20513;-86
2023/11/16 10:57:43;;;;;;;0.10;0.10;;;;;;;;;;4830192;29;20037;-86
2023/11/16 11:00:16;;;;;;;0.10;0.10;;;;;;;;;;4844076;29;20447;-86
2023/11/16 11:02:44;;;;;;;0.10;0.10;;;;;;;;;;4845482;29;20053;-86
2023/11/16 11:05:11;;;;;;;0.10;0.10;;;;;;;;;;4870607;29;20112;-85
2023/11/16 11:07:46;;;;;;;0.10;0.10;;;;;;;;;;4878517;29;20516;-85
2023/11/16 11:10:14;;;;;;;0.10;0.10;;;;;;;;;;4873554;29;20050;-85
2023/11/16 11:12:42;;;;;;;0.10;0.10;;;;;;;;;;4845674;29;20577;-86
2023/11/16 11:15:14;;;;;;;0.10;0.10;;;;;;;;;;4830053;29;20086;-85
2023/11/16 11:17:43;;;;;;;0.15;0.15;;;;;;;;;;4845351;29;20049;-85
2023/11/16 11:20:10;;;;;;;0.10;0.10;;;;;;;;;;4844950;29;20042;-86
2023/11/16 11:22:36;;;;;;;0.10;0.10;;;;;;;;;;4844928;29;20042;-86
2023/11/16 11:25:06;;;;;;;0.10;0.10;;;;;;;;;;4829923;29;20125;-86
2023/11/16 11:27:32;;;;;;;0.10;0.10;;;;;;;;;;4845262;29;20127;-86
2023/11/16 11:30:09;;;;;;;0.10;0.10;;;;;;;;;;4845142;29;20128;-88
2023/11/16 11:32:39;;;;;;;0.10;0.10;;;;;;;;;;4829855;29;20397;-84
2023/11/16 11:35:09;;;;;;;0.10;0.10;;;;;;;;;;4845152;29;20120;-84
2023/11/16 11:37:38;;;;;;;0.10;0.10;;;;;;;;;;4829884;29;20454;-85
2023/11/16 11:40:11;;;;;;;0.10;0.10;;;;;;;;;;4844853;29;20493;-85
2023/11/16 11:42:38;;;;;;;0.10;0.10;;;;;;;;;;4860285;29;20053;-85
2023/11/16 11:45:04;;;;;;;0.10;0.10;;;;;;;;;;4844646;29;20069;-84
2023/11/16 11:47:32;;;;;;;0.10;0.10;;;;;;;;;;4844484;29;20132;-84
2023/11/16 11:49:58;;;;;;;0.10;0.10;;;;;;;;;;4844751;29;20387;-85
2023/11/16 11:52:27;;;;;;;0.10;0.10;;;;;;;;;;4829492;29;20046;-84
2023/11/16 11:54:53;;;;;;;0.10;0.10;;;;;;;;;;4844353;29;20053;-85
2023/11/16 11:57:19;;;;;;;0.10;0.10;;;;;;;;;;4844927;29;20432;-85
2023/11/16 11:59:46;;;;;;;0.10;0.10;;;;;;;;;;4844288;29;20053;-89
2023/11/16 12:02:12;;;;;;;0.10;0.10;;;;;;;;;;4829284;29;20128;-88
2023/11/16 12:04:38;;;;;;;0.10;0.10;;;;;;;;;;4862784;29;20120;-84
2023/11/16 12:07:07;;;;;;;0.10;0.10;;;;;;;;;;4849269;29;20046;-84
2023/11/16 12:09:40;;;;;;;0.10;0.10;;;;;;;;;;4829125;29;20128;-84
2023/11/16 12:12:07;;;;;;;0.10;0.10;;;;;;;;;;4843898;29;20106;-84
2023/11/16 12:14:48;;;;;;;0.10;0.10;;;;;;;;;;4861033;29;20076;-85
2023/11/16 12:17:15;;;;;;;0.10;0.10;;;;;;;;;;4844126;29;20046;-84
2023/11/16 12:19:41;;;;;;;0.10;0.10;;;;;;;;;;4844037;29;20070;-84
2023/11/16 12:22:07;;;;;;;0.10;0.10;;;;;;;;;;4843869;29;20050;-85
2023/11/16 12:24:34;;;;;;;0.10;0.10;;;;;;;;;;4843915;29;20045;-85
2023/11/16 12:27:00;;;;;;;0.10;0.10;;;;;;;;;;4856490;29;20040;-89
2023/11/16 12:29:30;;;;;;;0.10;0.10;;;;;;;;;;4881040;29;20059;-86
2023/11/16 12:31:56;;;;;;;0.10;0.10;;;;;;;;;;4854347;29;20056;-86
2023/11/16 12:34:25;;;;;;;0.10;0.10;;;;;;;;;;4828744;29;20111;-86
2023/11/16 12:36:54;;;;;;;0.10;0.10;;;;;;;;;;4828949;29;20412;-86
2023/11/16 12:39:25;;;;;;;0.10;0.10;;;;;;;;;;4843957;29;20503;-86
2023/11/16 12:41:52;;;;;;;0.20;0.20;;;;;;;;;;4844120;29;20045;-86
2023/11/16 12:44:18;;;;;;;0.10;0.10;;;;;;;;;;4843993;29;20045;-86
2023/11/16 12:46:45;;;;;;;0.10;0.10;;;;;;;;;;4844027;29;20078;-86
2023/11/16 12:49:11;;;;;;;0.10;0.10;;;;;;;;;;4828920;29;20077;-86
2023/11/16 12:51:37;;;;;;;0.10;0.10;;;;;;;;;;4843758;29;20409;-85
2023/11/16 12:54:05;;;;;;;0.10;0.10;;;;;;;;;;4828959;29;20109;-85
2023/11/16 12:56:32;;;;;;;0.10;0.10;;;;;;;;;;4828916;29;20098;-85
2023/11/16 12:58:59;;;;;;;0.10;0.10;;;;;;;;;;4843870;29;20127;-87
2023/11/16 13:01:25;;;;;;;0.10;0.10;;;;;;;;;;4843670;29;20041;-87
2023/11/16 13:03:52;;;;;;;0.10;0.10;;;;;;;;;;4843606;29;20041;-88
2023/11/16 13:06:19;;;;;;;0.20;0.20;;;;;;;;;;4843670;29;20086;-86
2023/11/16 13:08:46;;;;;;;0.10;0.10;;;;;;;;;;4828381;29;20042;-87
2023/11/16 13:11:13;;;;;;;0.15;0.15;;;;;;;;;;4844290;29;20049;-87
2023/11/16 13:13:39;;;;;;;0.10;0.10;;;;;;;;;;4843444;29;20060;-87
2023/11/16 13:16:06;;;;;;;0.10;0.10;;;;;;;;;;4843588;29;20081;-87
2023/11/16 13:18:32;;;;;;;0.10;0.10;;;;;;;;;;4843642;29;20057;-87
2023/11/16 13:20:59;;;;;;;0.10;0.10;;;;;;;;;;4828315;29;20132;-87
2023/11/16 13:23:26;;;;;;;0.10;0.10;;;;;;;;;;4842844;29;20050;-87
2023/11/16 13:25:52;;;;;;;0.10;0.10;;;;;;;;;;4843802;29;20055;-87
2023/11/16 13:28:19;;;;;;;0.15;0.15;;;;;;;;;;4843357;29;20116;-87
2023/11/16 13:30:45;;;;;;;0.10;0.10;;;;;;;;;;4828098;29;20474;-87
2023/11/16 13:33:12;;;;;;;0.10;0.10;;;;;;;;;;4843665;29;20105;-86
2023/11/16 13:35:38;;;;;;;0.10;0.10;;;;;;;;;;4843173;29;20057;-87
2023/11/16 13:38:06;;;;;;;0.10;0.10;;;;;;;;;;4843342;29;20431;-88
2023/11/16 13:40:32;;;;;;;0.20;0.20;;;;;;;;;;4827625;29;20077;-86
2023/11/16 13:42:58;;;;;;;0.10;0.10;;;;;;;;;;4843045;29;20077;-86
2023/11/16 13:45:24;;;;;;;0.10;0.10;;;;;;;;;;4842871;29;20073;-87
2023/11/16 13:47:50;;;;;;;0.10;0.10;;;;;;;;;;4842946;29;20500;-86
2023/11/16 13:50:16;;;;;;;0.10;0.10;;;;;;;;;;4842647;29;20136;-86
2023/11/16 13:52:44;;;;;;;0.10;0.10;;;;;;;;;;4827796;29;20140;-87
2023/11/16 13:55:10;;;;;;;0.10;0.10;;;;;;;;;;4842768;29;20406;-87
2023/11/16 13:57:38;;;;;;;0.10;0.10;;;;;;;;;;4843128;29;20046;-87
2023/11/16 14:00:04;;;;;;;0.10;0.10;;;;;;;;;;4843116;29;20505;-86
2023/11/16 14:02:30;;;;;;;0.10;0.10;;;;;;;;;;4827577;29;20448;-87
2023/11/16 14:04:56;;;;;;;0.10;0.10;;;;;;;;;;4842893;29;20106;-86
2023/11/16 14:07:25;;;;;;;0.10;0.10;;;;;;;;;;4843037;29;20049;-88
2023/11/16 14:09:54;;;;;;;0.10;0.10;;;;;;;;;;4827524;29;20037;-88
2023/11/16 14:12:25;;;;;;;0.10;0.10;;;;;;;;;;4827723;29;20088;-86
2023/11/16 14:14:54;;;;;;;0.10;0.10;;;;;;;;;;4827465;29;20050;-86
2023/11/16 14:17:21;;;;;;;0.10;0.10;;;;;;;;;;4842649;29;20046;-87
2023/11/16 14:19:47;;;;;;;0.10;0.10;;;;;;;;;;4842607;29;20053;-86
2023/11/16 14:22:13;;;;;;;0.10;0.10;;;;;;;;;;4842774;29;20053;-88
2023/11/16 14:24:40;;;;;;;0.10;0.10;;;;;;;;;;4843128;29;20150;-88
2023/11/16 14:27:08;;;;;;;0.10;0.10;;;;;;;;;;4827679;29;20525;-88
2023/11/16 14:29:35;;;;;;;0.10;0.10;;;;;;;;;;4827447;29;20452;-87
2023/11/16 14:32:01;;;;;;;0.10;0.10;;;;;;;;;;4827638;29;20132;-88
2023/11/16 14:34:27;;;;;;;0.10;0.10;;;;;;;;;;4828984;29;20053;-87
2023/11/16 14:36:53;;;;;;;0.10;0.10;;;;;;;;;;4830951;29;20053;-88
2023/11/16 14:39:21;;;;;;;0.10;0.10;;;;;;;;;;4846080;29;20038;-88
2023/11/16 14:41:47;;;;;;;0.10;0.10;;;;;;;;;;4845790;29;20046;-89
2023/11/16 14:44:19;;;;;;;0.10;0.10;;;;;;;;;;4830306;29;20067;-88